Terminal Aerodrome Forecast
Issued by NWS

Home | Current Version | Previous Version | Text Only | Print | Product List | Glossary On
Versions: 1 2 3 4 5 6 7 8 9 10 11 12 13 14
000
FTUS41 KPBZ 271728
TAFZZV
TAF
KZZV 271728Z 2718/2818 20010G18KT P6SM BKN200
     FM271900 19011G21KT P6SM -SHRA VCTS BKN050CB
      TEMPO 2719/2722 22010G30KT 5SM -TSRA BKN025CB
     FM280000 22010KT P6SM BKN050
     FM280300 25006KT P6SM SCT050=

USA.gov is the U.S. government's official web portal to all federal, state and local government web resources and services.